sensor_id;sensor_type;location;lat;lon;timestamp;P1;durP1;ratioP1;P2;durP2;ratioP2
84054;SDS011;74141;51.504;7.122;2024-01-30T00:01:41;11.33;;;6.53;;
84054;SDS011;74141;51.504;7.122;2024-01-30T00:04:06;9.68;;;6.40;;
84054;SDS011;74141;51.504;7.122;2024-01-30T00:06:32;8.82;;;6.97;;
84054;SDS011;74141;51.504;7.122;2024-01-30T00:08:57;10.60;;;6.55;;
84054;SDS011;74141;51.504;7.122;2024-01-30T00:11:23;11.77;;;6.97;;
84054;SDS011;74141;51.504;7.122;2024-01-30T00:13:50;10.93;;;6.53;;
84054;SDS011;74141;51.504;7.122;2024-01-30T00:16:22;14.07;;;7.07;;
84054;SDS011;74141;51.504;7.122;2024-01-30T00:18:51;16.13;;;7.43;;
84054;SDS011;74141;51.504;7.122;2024-01-30T00:21:17;9.35;;;6.70;;
84054;SDS011;74141;51.504;7.122;2024-01-30T00:23:42;10.32;;;6.78;;
84054;SDS011;74141;51.504;7.122;2024-01-30T00:26:08;13.02;;;6.63;;
84054;SDS011;74141;51.504;7.122;2024-01-30T00:28:33;11.93;;;6.57;;
84054;SDS011;74141;51.504;7.122;2024-01-30T00:30:58;11.63;;;7.03;;
84054;SDS011;74141;51.504;7.122;2024-01-30T00:33:24;10.00;;;6.73;;
84054;SDS011;74141;51.504;7.122;2024-01-30T00:35:49;14.47;;;6.40;;
84054;SDS011;74141;51.504;7.122;2024-01-30T00:38:14;10.15;;;6.57;;
84054;SDS011;74141;51.504;7.122;2024-01-30T00:40:39;12.90;;;7.57;;
84054;SDS011;74141;51.504;7.122;2024-01-30T00:43:05;10.17;;;7.37;;
84054;SDS011;74141;51.504;7.122;2024-01-30T00:45:30;11.63;;;6.88;;
84054;SDS011;74141;51.504;7.122;2024-01-30T00:47:56;14.77;;;7.97;;
84054;SDS011;74141;51.504;7.122;2024-01-30T00:50:21;10.88;;;7.18;;
84054;SDS011;74141;51.504;7.122;2024-01-30T00:52:46;10.37;;;6.60;;
84054;SDS011;74141;51.504;7.122;2024-01-30T00:55:12;11.23;;;6.88;;
84054;SDS011;74141;51.504;7.122;2024-01-30T00:57:37;14.05;;;7.68;;
84054;SDS011;74141;51.504;7.122;2024-01-30T01:00:03;9.57;;;6.43;;
84054;SDS011;74141;51.504;7.122;2024-01-30T01:02:31;12.43;;;7.47;;
84054;SDS011;74141;51.504;7.122;2024-01-30T01:04:56;9.55;;;7.30;;
84054;SDS011;74141;51.504;7.122;2024-01-30T01:07:21;14.53;;;7.47;;
84054;SDS011;74141;51.504;7.122;2024-01-30T01:09:48;15.02;;;7.93;;
84054;SDS011;74141;51.504;7.122;2024-01-30T01:12:13;11.60;;;7.40;;
84054;SDS011;74141;51.504;7.122;2024-01-30T01:14:38;10.77;;;6.43;;
84054;SDS011;74141;51.504;7.122;2024-01-30T01:17:03;10.07;;;7.00;;
84054;SDS011;74141;51.504;7.122;2024-01-30T01:19:29;15.53;;;7.80;;
84054;SDS011;74141;51.504;7.122;2024-01-30T01:21:54;10.87;;;6.70;;
84054;SDS011;74141;51.504;7.122;2024-01-30T01:24:19;10.20;;;7.50;;
84054;SDS011;74141;51.504;7.122;2024-01-30T01:26:45;9.53;;;6.43;;
84054;SDS011;74141;51.504;7.122;2024-01-30T01:29:10;11.57;;;7.23;;
84054;SDS011;74141;51.504;7.122;2024-01-30T01:31:37;12.90;;;8.02;;
84054;SDS011;74141;51.504;7.122;2024-01-30T01:34:08;12.68;;;7.22;;
84054;SDS011;74141;51.504;7.122;2024-01-30T01:36:34;13.23;;;8.63;;
84054;SDS011;74141;51.504;7.122;2024-01-30T01:38:59;11.43;;;7.20;;
84054;SDS011;74141;51.504;7.122;2024-01-30T01:41:25;11.40;;;7.03;;
84054;SDS011;74141;51.504;7.122;2024-01-30T01:43:54;10.27;;;6.75;;
84054;SDS011;74141;51.504;7.122;2024-01-30T01:46:19;12.43;;;7.20;;
84054;SDS011;74141;51.504;7.122;2024-01-30T01:48:44;13.27;;;7.45;;
84054;SDS011;74141;51.504;7.122;2024-01-30T01:51:10;11.57;;;8.07;;
84054;SDS011;74141;51.504;7.122;2024-01-30T01:53:35;13.57;;;8.25;;
84054;SDS011;74141;51.504;7.122;2024-01-30T01:56:00;12.32;;;7.20;;
84054;SDS011;74141;51.504;7.122;2024-01-30T01:58:26;15.52;;;7.72;;
84054;SDS011;74141;51.504;7.122;2024-01-30T02:00:54;13.25;;;8.35;;
84054;SDS011;74141;51.504;7.122;2024-01-30T02:03:20;12.43;;;6.93;;
84054;SDS011;74141;51.504;7.122;2024-01-30T02:05:46;12.32;;;7.35;;
84054;SDS011;74141;51.504;7.122;2024-01-30T02:08:12;12.60;;;7.13;;
84054;SDS011;74141;51.504;7.122;2024-01-30T02:10:37;10.80;;;6.50;;
84054;SDS011;74141;51.504;7.122;2024-01-30T02:13:11;16.02;;;7.25;;
84054;SDS011;74141;51.504;7.122;2024-01-30T02:15:37;16.48;;;7.57;;
84054;SDS011;74141;51.504;7.122;2024-01-30T02:18:11;10.65;;;7.28;;
84054;SDS011;74141;51.504;7.122;2024-01-30T02:20:36;13.55;;;7.28;;
84054;SDS011;74141;51.504;7.122;2024-01-30T02:23:13;14.80;;;7.25;;
84054;SDS011;74141;51.504;7.122;2024-01-30T02:25:40;11.48;;;7.63;;
84054;SDS011;74141;51.504;7.122;2024-01-30T02:28:12;11.82;;;8.35;;
84054;SDS011;74141;51.504;7.122;2024-01-30T02:30:38;14.65;;;7.88;;
84054;SDS011;74141;51.504;7.122;2024-01-30T02:33:13;11.05;;;7.13;;
84054;SDS011;74141;51.504;7.122;2024-01-30T02:35:38;10.55;;;7.13;;
84054;SDS011;74141;51.504;7.122;2024-01-30T02:38:13;14.52;;;6.80;;
84054;SDS011;74141;51.504;7.122;2024-01-30T02:40:40;14.23;;;8.30;;
84054;SDS011;74141;51.504;7.122;2024-01-30T02:43:11;13.38;;;8.05;;
84054;SDS011;74141;51.504;7.122;2024-01-30T02:45:37;10.32;;;7.32;;
84054;SDS011;74141;51.504;7.122;2024-01-30T02:48:11;15.52;;;7.07;;
84054;SDS011;74141;51.504;7.122;2024-01-30T02:50:36;10.75;;;7.43;;
84054;SDS011;74141;51.504;7.122;2024-01-30T02:53:14;9.70;;;7.67;;
84054;SDS011;74141;51.504;7.122;2024-01-30T02:55:39;10.73;;;7.25;;
84054;SDS011;74141;51.504;7.122;2024-01-30T02:58:13;12.20;;;7.40;;
84054;SDS011;74141;51.504;7.122;2024-01-30T03:00:38;11.80;;;7.60;;
84054;SDS011;74141;51.504;7.122;2024-01-30T03:03:04;12.50;;;7.77;;
84054;SDS011;74141;51.504;7.122;2024-01-30T03:05:29;12.05;;;7.78;;
84054;SDS011;74141;51.504;7.122;2024-01-30T03:07:54;17.35;;;8.30;;
84054;SDS011;74141;51.504;7.122;2024-01-30T03:10:20;11.32;;;6.78;;
84054;SDS011;74141;51.504;7.122;2024-01-30T03:12:45;11.98;;;7.25;;
84054;SDS011;74141;51.504;7.122;2024-01-30T03:15:10;10.80;;;7.20;;
84054;SDS011;74141;51.504;7.122;2024-01-30T03:17:36;12.98;;;7.80;;
84054;SDS011;74141;51.504;7.122;2024-01-30T03:20:02;13.95;;;7.10;;
84054;SDS011;74141;51.504;7.122;2024-01-30T03:22:28;12.73;;;7.85;;
84054;SDS011;74141;51.504;7.122;2024-01-30T03:24:54;10.27;;;6.85;;
84054;SDS011;74141;51.504;7.122;2024-01-30T03:27:19;11.43;;;7.33;;
84054;SDS011;74141;51.504;7.122;2024-01-30T03:29:44;12.60;;;7.43;;
84054;SDS011;74141;51.504;7.122;2024-01-30T03:32:10;17.23;;;7.47;;
84054;SDS011;74141;51.504;7.122;2024-01-30T03:34:35;10.82;;;7.20;;
84054;SDS011;74141;51.504;7.122;2024-01-30T03:37:00;16.27;;;7.87;;
84054;SDS011;74141;51.504;7.122;2024-01-30T03:39:25;13.40;;;7.43;;
84054;SDS011;74141;51.504;7.122;2024-01-30T03:41:51;9.33;;;6.47;;
84054;SDS011;74141;51.504;7.122;2024-01-30T03:44:16;9.17;;;6.20;;
84054;SDS011;74141;51.504;7.122;2024-01-30T03:46:41;11.70;;;7.55;;
84054;SDS011;74141;51.504;7.122;2024-01-30T03:49:07;13.63;;;6.30;;
84054;SDS011;74141;51.504;7.122;2024-01-30T03:51:32;11.70;;;6.73;;
84054;SDS011;74141;51.504;7.122;2024-01-30T03:53:57;11.07;;;7.20;;
84054;SDS011;74141;51.504;7.122;2024-01-30T03:56:22;13.60;;;6.87;;
84054;SDS011;74141;51.504;7.122;2024-01-30T03:58:49;12.45;;;7.13;;
84054;SDS011;74141;51.504;7.122;2024-01-30T04:01:14;12.63;;;6.93;;
84054;SDS011;74141;51.504;7.122;2024-01-30T04:03:40;12.18;;;6.85;;
84054;SDS011;74141;51.504;7.122;2024-01-30T04:06:06;11.82;;;6.95;;
84054;SDS011;74141;51.504;7.122;2024-01-30T04:08:31;10.82;;;7.18;;
84054;SDS011;74141;51.504;7.122;2024-01-30T04:10:57;13.35;;;7.70;;
84054;SDS011;74141;51.504;7.122;2024-01-30T04:13:22;10.87;;;8.00;;
84054;SDS011;74141;51.504;7.122;2024-01-30T04:15:48;13.63;;;7.27;;
84054;SDS011;74141;51.504;7.122;2024-01-30T04:18:13;12.70;;;8.10;;
84054;SDS011;74141;51.504;7.122;2024-01-30T04:20:38;12.47;;;6.57;;
84054;SDS011;74141;51.504;7.122;2024-01-30T04:23:03;9.95;;;6.88;;
84054;SDS011;74141;51.504;7.122;2024-01-30T04:25:29;13.00;;;6.85;;
84054;SDS011;74141;51.504;7.122;2024-01-30T04:27:54;10.80;;;6.67;;
84054;SDS011;74141;51.504;7.122;2024-01-30T04:30:19;9.07;;;6.55;;
84054;SDS011;74141;51.504;7.122;2024-01-30T04:32:44;9.30;;;6.07;;
84054;SDS011;74141;51.504;7.122;2024-01-30T04:35:10;13.10;;;6.72;;
84054;SDS011;74141;51.504;7.122;2024-01-30T04:37:35;10.53;;;6.60;;
84054;SDS011;74141;51.504;7.122;2024-01-30T04:40:00;21.77;;;6.73;;
84054;SDS011;74141;51.504;7.122;2024-01-30T04:42:25;10.97;;;6.53;;
84054;SDS011;74141;51.504;7.122;2024-01-30T04:44:51;10.45;;;6.32;;
84054;SDS011;74141;51.504;7.122;2024-01-30T04:47:16;13.57;;;6.87;;
84054;SDS011;74141;51.504;7.122;2024-01-30T04:49:42;11.07;;;6.15;;
84054;SDS011;74141;51.504;7.122;2024-01-30T04:52:07;13.25;;;6.57;;
84054;SDS011;74141;51.504;7.122;2024-01-30T04:54:34;10.90;;;6.05;;
84054;SDS011;74141;51.504;7.122;2024-01-30T04:57:00;9.93;;;6.80;;
84054;SDS011;74141;51.504;7.122;2024-01-30T04:59:25;12.07;;;6.95;;
84054;SDS011;74141;51.504;7.122;2024-01-30T05:01:50;9.20;;;6.20;;
84054;SDS011;74141;51.504;7.122;2024-01-30T05:04:16;10.50;;;6.65;;
84054;SDS011;74141;51.504;7.122;2024-01-30T05:06:41;10.13;;;6.28;;
84054;SDS011;74141;51.504;7.122;2024-01-30T05:09:06;12.90;;;6.57;;
84054;SDS011;74141;51.504;7.122;2024-01-30T05:11:36;11.02;;;6.18;;
84054;SDS011;74141;51.504;7.122;2024-01-30T05:14:02;12.25;;;6.40;;
84054;SDS011;74141;51.504;7.122;2024-01-30T05:16:28;10.32;;;5.85;;
84054;SDS011;74141;51.504;7.122;2024-01-30T05:18:53;8.33;;;5.77;;
84054;SDS011;74141;51.504;7.122;2024-01-30T05:21:18;7.20;;;5.20;;
84054;SDS011;74141;51.504;7.122;2024-01-30T05:23:44;8.68;;;5.80;;
84054;SDS011;74141;51.504;7.122;2024-01-30T05:26:09;8.15;;;5.60;;
84054;SDS011;74141;51.504;7.122;2024-01-30T05:28:34;10.87;;;5.33;;
84054;SDS011;74141;51.504;7.122;2024-01-30T05:31:00;10.10;;;5.93;;
84054;SDS011;74141;51.504;7.122;2024-01-30T05:33:25;10.43;;;6.37;;
84054;SDS011;74141;51.504;7.122;2024-01-30T05:35:50;17.60;;;6.23;;
84054;SDS011;74141;51.504;7.122;2024-01-30T05:38:19;11.77;;;6.05;;
84054;SDS011;74141;51.504;7.122;2024-01-30T05:40:44;9.30;;;6.32;;
84054;SDS011;74141;51.504;7.122;2024-01-30T05:43:09;8.70;;;5.67;;
84054;SDS011;74141;51.504;7.122;2024-01-30T05:45:35;12.37;;;6.43;;
84054;SDS011;74141;51.504;7.122;2024-01-30T05:48:01;8.27;;;5.97;;
84054;SDS011;74141;51.504;7.122;2024-01-30T05:50:26;12.27;;;5.77;;
84054;SDS011;74141;51.504;7.122;2024-01-30T05:52:52;9.57;;;5.97;;
84054;SDS011;74141;51.504;7.122;2024-01-30T05:55:17;9.65;;;6.15;;
84054;SDS011;74141;51.504;7.122;2024-01-30T05:57:42;8.77;;;5.53;;
84054;SDS011;74141;51.504;7.122;2024-01-30T06:00:08;9.63;;;6.70;;
84054;SDS011;74141;51.504;7.122;2024-01-30T06:02:33;10.77;;;6.32;;
84054;SDS011;74141;51.504;7.122;2024-01-30T06:04:59;11.88;;;5.80;;
84054;SDS011;74141;51.504;7.122;2024-01-30T06:07:24;11.90;;;6.40;;
84054;SDS011;74141;51.504;7.122;2024-01-30T06:09:49;10.23;;;5.53;;
84054;SDS011;74141;51.504;7.122;2024-01-30T06:12:15;6.90;;;5.32;;
84054;SDS011;74141;51.504;7.122;2024-01-30T06:14:40;11.32;;;6.25;;
84054;SDS011;74141;51.504;7.122;2024-01-30T06:17:07;9.65;;;6.53;;
84054;SDS011;74141;51.504;7.122;2024-01-30T06:19:33;11.88;;;6.00;;
84054;SDS011;74141;51.504;7.122;2024-01-30T06:21:58;12.23;;;6.13;;
84054;SDS011;74141;51.504;7.122;2024-01-30T06:24:23;10.18;;;5.70;;
84054;SDS011;74141;51.504;7.122;2024-01-30T06:26:48;8.97;;;5.47;;
84054;SDS011;74141;51.504;7.122;2024-01-30T06:29:14;12.20;;;5.88;;
84054;SDS011;74141;51.504;7.122;2024-01-30T06:31:42;12.15;;;5.90;;
84054;SDS011;74141;51.504;7.122;2024-01-30T06:34:09;10.13;;;6.40;;
84054;SDS011;74141;51.504;7.122;2024-01-30T06:36:35;11.38;;;6.18;;
84054;SDS011;74141;51.504;7.122;2024-01-30T06:39:01;10.75;;;6.53;;
84054;SDS011;74141;51.504;7.122;2024-01-30T06:41:27;11.05;;;6.05;;
84054;SDS011;74141;51.504;7.122;2024-01-30T06:43:52;8.15;;;6.03;;
84054;SDS011;74141;51.504;7.122;2024-01-30T06:46:18;10.43;;;6.47;;
84054;SDS011;74141;51.504;7.122;2024-01-30T06:48:43;7.93;;;5.30;;
84054;SDS011;74141;51.504;7.122;2024-01-30T06:51:09;11.85;;;6.38;;
84054;SDS011;74141;51.504;7.122;2024-01-30T06:53:35;10.35;;;6.13;;
84054;SDS011;74141;51.504;7.122;2024-01-30T06:56:00;9.80;;;5.83;;
84054;SDS011;74141;51.504;7.122;2024-01-30T06:58:26;11.27;;;6.33;;
84054;SDS011;74141;51.504;7.122;2024-01-30T07:00:51;15.17;;;6.10;;
84054;SDS011;74141;51.504;7.122;2024-01-30T07:03:16;10.20;;;6.07;;
84054;SDS011;74141;51.504;7.122;2024-01-30T07:05:41;11.73;;;6.23;;
84054;SDS011;74141;51.504;7.122;2024-01-30T07:08:07;8.57;;;5.45;;
84054;SDS011;74141;51.504;7.122;2024-01-30T07:10:33;11.35;;;5.82;;
84054;SDS011;74141;51.504;7.122;2024-01-30T07:12:58;9.17;;;5.27;;
84054;SDS011;74141;51.504;7.122;2024-01-30T07:15:25;12.32;;;5.65;;
84054;SDS011;74141;51.504;7.122;2024-01-30T07:17:50;9.10;;;6.20;;
84054;SDS011;74141;51.504;7.122;2024-01-30T07:20:16;14.27;;;5.87;;
84054;SDS011;74141;51.504;7.122;2024-01-30T07:22:42;10.63;;;5.57;;
84054;SDS011;74141;51.504;7.122;2024-01-30T07:25:09;12.65;;;6.03;;
84054;SDS011;74141;51.504;7.122;2024-01-30T07:27:34;8.75;;;6.05;;
84054;SDS011;74141;51.504;7.122;2024-01-30T07:29:59;8.43;;;5.30;;
84054;SDS011;74141;51.504;7.122;2024-01-30T07:32:25;8.60;;;5.25;;
84054;SDS011;74141;51.504;7.122;2024-01-30T07:34:50;10.27;;;5.90;;
84054;SDS011;74141;51.504;7.122;2024-01-30T07:37:15;7.93;;;5.60;;
84054;SDS011;74141;51.504;7.122;2024-01-30T07:39:41;11.90;;;6.40;;
84054;SDS011;74141;51.504;7.122;2024-01-30T07:42:07;8.93;;;5.68;;
84054;SDS011;74141;51.504;7.122;2024-01-30T07:44:32;7.25;;;5.75;;
84054;SDS011;74141;51.504;7.122;2024-01-30T07:46:57;13.53;;;6.50;;
84054;SDS011;74141;51.504;7.122;2024-01-30T07:49:23;11.10;;;6.17;;
84054;SDS011;74141;51.504;7.122;2024-01-30T07:51:48;8.07;;;5.73;;
84054;SDS011;74141;51.504;7.122;2024-01-30T07:54:13;10.23;;;5.63;;
84054;SDS011;74141;51.504;7.122;2024-01-30T08:03:22;10.82;;;5.55;;
84054;SDS011;74141;51.504;7.122;2024-01-30T08:05:47;8.15;;;5.78;;
84054;SDS011;74141;51.504;7.122;2024-01-30T08:08:13;8.93;;;5.63;;
84054;SDS011;74141;51.504;7.122;2024-01-30T08:10:38;12.07;;;5.63;;
84054;SDS011;74141;51.504;7.122;2024-01-30T08:13:03;6.67;;;5.30;;
84054;SDS011;74141;51.504;7.122;2024-01-30T08:15:28;11.27;;;6.35;;
84054;SDS011;74141;51.504;7.122;2024-01-30T08:17:54;9.53;;;5.50;;
84054;SDS011;74141;51.504;7.122;2024-01-30T08:20:23;12.30;;;5.90;;
84054;SDS011;74141;51.504;7.122;2024-01-30T08:22:51;7.78;;;5.72;;
84054;SDS011;74141;51.504;7.122;2024-01-30T08:25:17;10.73;;;5.93;;
84054;SDS011;74141;51.504;7.122;2024-01-30T08:27:42;8.45;;;5.68;;
84054;SDS011;74141;51.504;7.122;2024-01-30T08:30:08;9.40;;;5.70;;
84054;SDS011;74141;51.504;7.122;2024-01-30T08:32:33;11.18;;;5.85;;
84054;SDS011;74141;51.504;7.122;2024-01-30T08:34:59;8.32;;;5.35;;
84054;SDS011;74141;51.504;7.122;2024-01-30T08:37:24;9.15;;;5.22;;
84054;SDS011;74141;51.504;7.122;2024-01-30T08:39:50;12.37;;;5.50;;
84054;SDS011;74141;51.504;7.122;2024-01-30T08:42:15;12.87;;;6.13;;
84054;SDS011;74141;51.504;7.122;2024-01-30T08:44:43;9.48;;;5.53;;
84054;SDS011;74141;51.504;7.122;2024-01-30T08:47:08;8.03;;;5.50;;
84054;SDS011;74141;51.504;7.122;2024-01-30T08:49:33;9.10;;;5.32;;
84054;SDS011;74141;51.504;7.122;2024-01-30T08:51:59;7.65;;;4.82;;
84054;SDS011;74141;51.504;7.122;2024-01-30T08:54:24;10.98;;;5.70;;
84054;SDS011;74141;51.504;7.122;2024-01-30T08:56:49;9.13;;;5.50;;
84054;SDS011;74141;51.504;7.122;2024-01-30T08:59:14;11.90;;;5.35;;
84054;SDS011;74141;51.504;7.122;2024-01-30T09:01:40;10.75;;;6.55;;
84054;SDS011;74141;51.504;7.122;2024-01-30T09:04:05;7.95;;;5.10;;
84054;SDS011;74141;51.504;7.122;2024-01-30T09:06:30;10.70;;;5.63;;
84054;SDS011;74141;51.504;7.122;2024-01-30T09:08:56;11.60;;;6.38;;
84054;SDS011;74141;51.504;7.122;2024-01-30T09:11:22;10.05;;;5.82;;
84054;SDS011;74141;51.504;7.122;2024-01-30T09:13:48;8.93;;;5.40;;
84054;SDS011;74141;51.504;7.122;2024-01-30T09:16:13;13.60;;;6.82;;
84054;SDS011;74141;51.504;7.122;2024-01-30T09:18:40;11.02;;;6.35;;
84054;SDS011;74141;51.504;7.122;2024-01-30T09:21:06;10.65;;;5.97;;
84054;SDS011;74141;51.504;7.122;2024-01-30T09:23:31;7.87;;;5.43;;
84054;SDS011;74141;51.504;7.122;2024-01-30T09:25:56;9.63;;;5.83;;
84054;SDS011;74141;51.504;7.122;2024-01-30T09:28:22;12.60;;;6.03;;
84054;SDS011;74141;51.504;7.122;2024-01-30T09:30:47;15.65;;;6.45;;
84054;SDS011;74141;51.504;7.122;2024-01-30T09:33:12;8.52;;;5.90;;
84054;SDS011;74141;51.504;7.122;2024-01-30T09:35:37;10.47;;;5.97;;
84054;SDS011;74141;51.504;7.122;2024-01-30T09:38:03;12.03;;;8.07;;
84054;SDS011;74141;51.504;7.122;2024-01-30T09:40:28;10.25;;;5.90;;
84054;SDS011;74141;51.504;7.122;2024-01-30T09:42:54;9.48;;;6.10;;
84054;SDS011;74141;51.504;7.122;2024-01-30T09:45:21;10.93;;;7.68;;
84054;SDS011;74141;51.504;7.122;2024-01-30T09:47:49;8.63;;;5.90;;
84054;SDS011;74141;51.504;7.122;2024-01-30T09:50:14;13.32;;;6.10;;
84054;SDS011;74141;51.504;7.122;2024-01-30T09:52:40;8.77;;;5.82;;
84054;SDS011;74141;51.504;7.122;2024-01-30T09:55:07;8.45;;;6.03;;
84054;SDS011;74141;51.504;7.122;2024-01-30T09:57:33;9.43;;;5.70;;
84054;SDS011;74141;51.504;7.122;2024-01-30T09:59:59;10.32;;;5.07;;
84054;SDS011;74141;51.504;7.122;2024-01-30T10:02:24;7.55;;;5.32;;
84054;SDS011;74141;51.504;7.122;2024-01-30T10:04:50;8.02;;;5.25;;
84054;SDS011;74141;51.504;7.122;2024-01-30T10:07:17;10.73;;;5.13;;
84054;SDS011;74141;51.504;7.122;2024-01-30T10:09:45;9.00;;;5.75;;
84054;SDS011;74141;51.504;7.122;2024-01-30T10:12:11;7.22;;;4.72;;
84054;SDS011;74141;51.504;7.122;2024-01-30T10:14:38;7.60;;;4.90;;
84054;SDS011;74141;51.504;7.122;2024-01-30T10:17:07;8.35;;;5.55;;
84054;SDS011;74141;51.504;7.122;2024-01-30T10:19:34;8.32;;;4.85;;
84054;SDS011;74141;51.504;7.122;2024-01-30T10:22:00;6.43;;;4.72;;
84054;SDS011;74141;51.504;7.122;2024-01-30T10:24:26;9.10;;;5.20;;
84054;SDS011;74141;51.504;7.122;2024-01-30T10:26:52;8.02;;;5.68;;
84054;SDS011;74141;51.504;7.122;2024-01-30T10:29:18;9.85;;;5.45;;
84054;SDS011;74141;51.504;7.122;2024-01-30T10:31:44;7.13;;;4.82;;
84054;SDS011;74141;51.504;7.122;2024-01-30T10:34:09;9.05;;;4.78;;
84054;SDS011;74141;51.504;7.122;2024-01-30T10:36:36;9.63;;;5.15;;
84054;SDS011;74141;51.504;7.122;2024-01-30T10:39:05;6.68;;;4.82;;
84054;SDS011;74141;51.504;7.122;2024-01-30T10:41:31;9.13;;;5.53;;
84054;SDS011;74141;51.504;7.122;2024-01-30T10:44:11;11.30;;;5.30;;
84054;SDS011;74141;51.504;7.122;2024-01-30T10:46:40;9.20;;;5.15;;
84054;SDS011;74141;51.504;7.122;2024-01-30T10:49:11;8.00;;;4.97;;
84054;SDS011;74141;51.504;7.122;2024-01-30T10:51:38;10.35;;;5.05;;
84054;SDS011;74141;51.504;7.122;2024-01-30T10:54:04;7.65;;;4.78;;
84054;SDS011;74141;51.504;7.122;2024-01-30T10:56:31;10.55;;;5.50;;
84054;SDS011;74141;51.504;7.122;2024-01-30T10:58:58;9.43;;;5.40;;
84054;SDS011;74141;51.504;7.122;2024-01-30T11:01:23;7.47;;;4.80;;
84054;SDS011;74141;51.504;7.122;2024-01-30T11:03:53;8.27;;;4.80;;
84054;SDS011;74141;51.504;7.122;2024-01-30T11:06:21;5.93;;;4.82;;
84054;SDS011;74141;51.504;7.122;2024-01-30T11:09:01;8.75;;;4.85;;
84054;SDS011;74141;51.504;7.122;2024-01-30T11:11:50;11.85;;;5.28;;
84054;SDS011;74141;51.504;7.122;2024-01-30T11:14:29;11.98;;;5.70;;
84054;SDS011;74141;51.504;7.122;2024-01-30T11:16:58;9.55;;;5.40;;
84054;SDS011;74141;51.504;7.122;2024-01-30T11:19:25;9.57;;;4.65;;
84054;SDS011;74141;51.504;7.122;2024-01-30T11:21:53;11.02;;;6.18;;
84054;SDS011;74141;51.504;7.122;2024-01-30T11:24:20;12.10;;;5.30;;
84054;SDS011;74141;51.504;7.122;2024-01-30T11:26:49;8.63;;;5.30;;
84054;SDS011;74141;51.504;7.122;2024-01-30T11:29:16;10.43;;;5.20;;
84054;SDS011;74141;51.504;7.122;2024-01-30T11:31:51;11.52;;;5.50;;
84054;SDS011;74141;51.504;7.122;2024-01-30T11:34:18;9.30;;;5.80;;
84054;SDS011;74141;51.504;7.122;2024-01-30T11:36:44;8.38;;;5.25;;
84054;SDS011;74141;51.504;7.122;2024-01-30T11:39:11;8.57;;;5.88;;
84054;SDS011;74141;51.504;7.122;2024-01-30T11:41:38;10.23;;;5.22;;
84054;SDS011;74141;51.504;7.122;2024-01-30T11:44:04;11.38;;;6.28;;
84054;SDS011;74141;51.504;7.122;2024-01-30T11:46:30;10.60;;;5.22;;
84054;SDS011;74141;51.504;7.122;2024-01-30T11:48:55;9.25;;;5.80;;
84054;SDS011;74141;51.504;7.122;2024-01-30T11:51:20;8.00;;;5.47;;
84054;SDS011;74141;51.504;7.122;2024-01-30T11:53:49;10.43;;;5.13;;
84054;SDS011;74141;51.504;7.122;2024-01-30T11:56:14;10.65;;;6.32;;
84054;SDS011;74141;51.504;7.122;2024-01-30T11:58:42;10.93;;;5.13;;
84054;SDS011;74141;51.504;7.122;2024-01-30T12:01:08;12.68;;;5.72;;
84054;SDS011;74141;51.504;7.122;2024-01-30T12:03:33;12.90;;;5.88;;
84054;SDS011;74141;51.504;7.122;2024-01-30T12:05:58;10.13;;;6.20;;
84054;SDS011;74141;51.504;7.122;2024-01-30T12:08:24;11.18;;;5.70;;
84054;SDS011;74141;51.504;7.122;2024-01-30T12:10:59;10.27;;;6.15;;
84054;SDS011;74141;51.504;7.122;2024-01-30T12:13:26;8.73;;;5.15;;
84054;SDS011;74141;51.504;7.122;2024-01-30T12:15:52;11.40;;;6.05;;
84054;SDS011;74141;51.504;7.122;2024-01-30T12:18:20;9.25;;;5.20;;
84054;SDS011;74141;51.504;7.122;2024-01-30T12:20:56;12.70;;;7.18;;
84054;SDS011;74141;51.504;7.122;2024-01-30T12:23:22;10.68;;;6.18;;
84054;SDS011;74141;51.504;7.122;2024-01-30T12:25:50;9.25;;;5.53;;
84054;SDS011;74141;51.504;7.122;2024-01-30T12:28:16;11.25;;;5.82;;
84054;SDS011;74141;51.504;7.122;2024-01-30T12:30:41;11.30;;;6.23;;
84054;SDS011;74141;51.504;7.122;2024-01-30T12:33:07;11.45;;;6.78;;
84054;SDS011;74141;51.504;7.122;2024-01-30T12:35:34;11.43;;;5.25;;
84054;SDS011;74141;51.504;7.122;2024-01-30T12:38:00;8.35;;;5.65;;
84054;SDS011;74141;51.504;7.122;2024-01-30T12:40:25;9.55;;;5.55;;
84054;SDS011;74141;51.504;7.122;2024-01-30T12:42:51;10.05;;;5.57;;
84054;SDS011;74141;51.504;7.122;2024-01-30T12:45:17;9.68;;;5.65;;
84054;SDS011;74141;51.504;7.122;2024-01-30T12:47:47;14.20;;;6.65;;
84054;SDS011;74141;51.504;7.122;2024-01-30T12:50:13;11.70;;;6.00;;
84054;SDS011;74141;51.504;7.122;2024-01-30T12:52:40;9.20;;;5.65;;
84054;SDS011;74141;51.504;7.122;2024-01-30T12:55:06;8.30;;;5.30;;
84054;SDS011;74141;51.504;7.122;2024-01-30T12:57:31;13.27;;;6.10;;
84054;SDS011;74141;51.504;7.122;2024-01-30T12:59:57;13.40;;;5.67;;
84054;SDS011;74141;51.504;7.122;2024-01-30T13:02:22;9.27;;;5.50;;
84054;SDS011;74141;51.504;7.122;2024-01-30T13:04:48;14.60;;;6.03;;
84054;SDS011;74141;51.504;7.122;2024-01-30T13:07:13;11.68;;;5.72;;
84054;SDS011;74141;51.504;7.122;2024-01-30T13:09:38;13.07;;;5.93;;
84054;SDS011;74141;51.504;7.122;2024-01-30T13:12:04;9.85;;;5.78;;
84054;SDS011;74141;51.504;7.122;2024-01-30T13:14:29;9.73;;;6.05;;
84054;SDS011;74141;51.504;7.122;2024-01-30T13:16:54;10.13;;;5.70;;
84054;SDS011;74141;51.504;7.122;2024-01-30T13:19:20;14.30;;;7.00;;
84054;SDS011;74141;51.504;7.122;2024-01-30T13:21:45;13.43;;;5.68;;
84054;SDS011;74141;51.504;7.122;2024-01-30T13:24:11;11.73;;;6.40;;
84054;SDS011;74141;51.504;7.122;2024-01-30T13:26:36;11.55;;;5.68;;
84054;SDS011;74141;51.504;7.122;2024-01-30T13:29:02;14.65;;;6.22;;
84054;SDS011;74141;51.504;7.122;2024-01-30T13:31:28;9.88;;;5.85;;
84054;SDS011;74141;51.504;7.122;2024-01-30T13:33:54;13.43;;;5.93;;
84054;SDS011;74141;51.504;7.122;2024-01-30T13:36:20;10.40;;;6.15;;
84054;SDS011;74141;51.504;7.122;2024-01-30T13:38:46;12.63;;;6.70;;
84054;SDS011;74141;51.504;7.122;2024-01-30T13:41:12;11.82;;;7.28;;
84054;SDS011;74141;51.504;7.122;2024-01-30T13:43:37;18.40;;;6.47;;
84054;SDS011;74141;51.504;7.122;2024-01-30T13:46:02;12.77;;;6.67;;
84054;SDS011;74141;51.504;7.122;2024-01-30T13:48:28;12.50;;;6.50;;
84054;SDS011;74141;51.504;7.122;2024-01-30T13:50:54;14.38;;;6.32;;
84054;SDS011;74141;51.504;7.122;2024-01-30T13:53:20;13.57;;;6.25;;
84054;SDS011;74141;51.504;7.122;2024-01-30T13:55:46;13.18;;;6.78;;
84054;SDS011;74141;51.504;7.122;2024-01-30T13:58:12;13.07;;;6.78;;
84054;SDS011;74141;51.504;7.122;2024-01-30T14:00:37;19.27;;;7.45;;
84054;SDS011;74141;51.504;7.122;2024-01-30T14:03:03;16.42;;;7.43;;
84054;SDS011;74141;51.504;7.122;2024-01-30T14:05:28;12.73;;;6.85;;
84054;SDS011;74141;51.504;7.122;2024-01-30T14:07:54;12.07;;;7.00;;
84054;SDS011;74141;51.504;7.122;2024-01-30T14:10:19;11.55;;;7.20;;
84054;SDS011;74141;51.504;7.122;2024-01-30T14:12:45;13.80;;;7.30;;
84054;SDS011;74141;51.504;7.122;2024-01-30T14:15:12;14.57;;;6.97;;
84054;SDS011;74141;51.504;7.122;2024-01-30T14:17:39;11.57;;;6.97;;
84054;SDS011;74141;51.504;7.122;2024-01-30T14:20:05;12.67;;;6.27;;
84054;SDS011;74141;51.504;7.122;2024-01-30T14:22:31;10.82;;;7.18;;
84054;SDS011;74141;51.504;7.122;2024-01-30T14:24:57;11.32;;;6.72;;
84054;SDS011;74141;51.504;7.122;2024-01-30T14:27:22;9.93;;;6.93;;
84054;SDS011;74141;51.504;7.122;2024-01-30T14:29:47;12.50;;;6.77;;
84054;SDS011;74141;51.504;7.122;2024-01-30T14:32:13;11.13;;;6.32;;
84054;SDS011;74141;51.504;7.122;2024-01-30T14:34:38;11.30;;;6.10;;
84054;SDS011;74141;51.504;7.122;2024-01-30T14:37:04;9.60;;;6.82;;
84054;SDS011;74141;51.504;7.122;2024-01-30T14:39:29;12.07;;;7.18;;